sensor_id;sensor_type;location;lat;lon;timestamp;P1;durP1;ratioP1;P2;durP2;ratioP2
17595;SDS011;8916;47.086;15.920;2022-12-07T00:01:49;50.45;;;24.35;;
17595;SDS011;8916;47.086;15.920;2022-12-07T00:04:19;49.97;;;24.83;;
17595;SDS011;8916;47.086;15.920;2022-12-07T00:06:50;48.70;;;24.20;;
17595;SDS011;8916;47.086;15.920;2022-12-07T00:09:20;50.42;;;24.33;;
17595;SDS011;8916;47.086;15.920;2022-12-07T00:11:51;48.78;;;23.80;;
17595;SDS011;8916;47.086;15.920;2022-12-07T00:14:20;54.25;;;25.65;;
17595;SDS011;8916;47.086;15.920;2022-12-07T00:16:52;52.05;;;25.15;;
17595;SDS011;8916;47.086;15.920;2022-12-07T00:19:21;52.97;;;25.45;;
17595;SDS011;8916;47.086;15.920;2022-12-07T00:21:51;54.72;;;25.70;;
17595;SDS011;8916;47.086;15.920;2022-12-07T00:24:21;55.30;;;25.35;;
17595;SDS011;8916;47.086;15.920;2022-12-07T00:26:51;54.53;;;26.02;;
17595;SDS011;8916;47.086;15.920;2022-12-07T00:29:21;58.58;;;25.02;;
17595;SDS011;8916;47.086;15.920;2022-12-07T00:31:50;54.05;;;26.08;;
17595;SDS011;8916;47.086;15.920;2022-12-07T00:34:20;57.78;;;27.17;;
17595;SDS011;8916;47.086;15.920;2022-12-07T00:36:50;56.30;;;25.58;;
17595;SDS011;8916;47.086;15.920;2022-12-07T00:39:19;61.03;;;27.05;;
17595;SDS011;8916;47.086;15.920;2022-12-07T00:41:48;56.55;;;26.05;;
17595;SDS011;8916;47.086;15.920;2022-12-07T00:44:18;60.20;;;27.25;;
17595;SDS011;8916;47.086;15.920;2022-12-07T00:46:48;56.55;;;26.73;;
17595;SDS011;8916;47.086;15.920;2022-12-07T00:49:17;55.33;;;25.60;;
17595;SDS011;8916;47.086;15.920;2022-12-07T00:51:47;68.95;;;27.20;;
17595;SDS011;8916;47.086;15.920;2022-12-07T00:54:16;59.22;;;26.38;;
17595;SDS011;8916;47.086;15.920;2022-12-07T00:56:46;58.85;;;26.85;;
17595;SDS011;8916;47.086;15.920;2022-12-07T00:59:15;57.88;;;25.52;;
17595;SDS011;8916;47.086;15.920;2022-12-07T01:01:46;62.90;;;26.65;;
17595;SDS011;8916;47.086;15.920;2022-12-07T01:04:16;62.97;;;27.27;;
17595;SDS011;8916;47.086;15.920;2022-12-07T01:06:45;68.43;;;28.25;;
17595;SDS011;8916;47.086;15.920;2022-12-07T01:09:14;60.90;;;27.58;;
17595;SDS011;8916;47.086;15.920;2022-12-07T01:11:43;57.58;;;25.42;;
17595;SDS011;8916;47.086;15.920;2022-12-07T01:14:12;53.67;;;25.27;;
17595;SDS011;8916;47.086;15.920;2022-12-07T01:16:41;55.72;;;24.77;;
17595;SDS011;8916;47.086;15.920;2022-12-07T01:19:12;63.42;;;25.45;;
17595;SDS011;8916;47.086;15.920;2022-12-07T01:21:42;59.55;;;24.48;;
17595;SDS011;8916;47.086;15.920;2022-12-07T01:24:11;53.33;;;24.17;;
17595;SDS011;8916;47.086;15.920;2022-12-07T01:26:40;57.72;;;24.13;;
17595;SDS011;8916;47.086;15.920;2022-12-07T01:29:09;60.03;;;24.27;;
17595;SDS011;8916;47.086;15.920;2022-12-07T01:31:38;54.17;;;23.67;;
17595;SDS011;8916;47.086;15.920;2022-12-07T01:34:08;57.70;;;24.40;;
17595;SDS011;8916;47.086;15.920;2022-12-07T01:36:38;62.03;;;24.75;;
17595;SDS011;8916;47.086;15.920;2022-12-07T01:39:09;58.22;;;25.45;;
17595;SDS011;8916;47.086;15.920;2022-12-07T01:41:39;67.13;;;26.40;;
17595;SDS011;8916;47.086;15.920;2022-12-07T01:44:12;62.95;;;26.55;;
17595;SDS011;8916;47.086;15.920;2022-12-07T01:46:46;62.72;;;26.42;;
17595;SDS011;8916;47.086;15.920;2022-12-07T01:49:21;64.65;;;27.05;;
17595;SDS011;8916;47.086;15.920;2022-12-07T01:52:00;65.45;;;27.15;;
17595;SDS011;8916;47.086;15.920;2022-12-07T01:54:40;64.90;;;26.65;;
17595;SDS011;8916;47.086;15.920;2022-12-07T01:57:11;63.33;;;26.15;;
17595;SDS011;8916;47.086;15.920;2022-12-07T01:59:43;59.78;;;26.30;;
17595;SDS011;8916;47.086;15.920;2022-12-07T02:02:17;59.08;;;24.65;;
17595;SDS011;8916;47.086;15.920;2022-12-07T02:04:51;63.22;;;26.55;;
17595;SDS011;8916;47.086;15.920;2022-12-07T02:07:23;65.57;;;28.05;;
17595;SDS011;8916;47.086;15.920;2022-12-07T02:09:55;59.20;;;25.40;;
17595;SDS011;8916;47.086;15.920;2022-12-07T02:12:24;63.22;;;27.10;;
17595;SDS011;8916;47.086;15.920;2022-12-07T02:14:54;61.00;;;25.52;;
17595;SDS011;8916;47.086;15.920;2022-12-07T02:17:25;63.65;;;26.52;;
17595;SDS011;8916;47.086;15.920;2022-12-07T02:20:03;62.15;;;26.13;;
17595;SDS011;8916;47.086;15.920;2022-12-07T02:23:07;65.15;;;27.92;;
17595;SDS011;8916;47.086;15.920;2022-12-07T02:26:19;75.00;;;28.75;;
17595;SDS011;8916;47.086;15.920;2022-12-07T02:29:23;71.75;;;27.83;;
17595;SDS011;8916;47.086;15.920;2022-12-07T02:31:58;66.88;;;26.30;;
17595;SDS011;8916;47.086;15.920;2022-12-07T02:34:38;57.30;;;24.70;;
17595;SDS011;8916;47.086;15.920;2022-12-07T02:37:19;55.45;;;23.67;;
17595;SDS011;8916;47.086;15.920;2022-12-07T02:40:04;53.00;;;23.92;;
17595;SDS011;8916;47.086;15.920;2022-12-07T02:42:42;58.72;;;25.42;;
17595;SDS011;8916;47.086;15.920;2022-12-07T02:45:21;52.38;;;24.05;;
17595;SDS011;8916;47.086;15.920;2022-12-07T02:47:55;49.65;;;23.08;;
17595;SDS011;8916;47.086;15.920;2022-12-07T02:50:27;54.55;;;23.85;;
17595;SDS011;8916;47.086;15.920;2022-12-07T02:52:56;58.13;;;24.15;;
17595;SDS011;8916;47.086;15.920;2022-12-07T02:55:26;55.25;;;24.05;;
17595;SDS011;8916;47.086;15.920;2022-12-07T02:58:18;57.88;;;25.33;;
17595;SDS011;8916;47.086;15.920;2022-12-07T03:01:03;55.92;;;24.48;;
17595;SDS011;8916;47.086;15.920;2022-12-07T03:03:44;57.00;;;24.92;;
17595;SDS011;8916;47.086;15.920;2022-12-07T03:06:26;51.03;;;24.45;;
17595;SDS011;8916;47.086;15.920;2022-12-07T03:09:01;54.95;;;23.48;;
17595;SDS011;8916;47.086;15.920;2022-12-07T03:11:43;58.63;;;24.88;;
17595;SDS011;8916;47.086;15.920;2022-12-07T03:14:17;44.15;;;21.13;;
17595;SDS011;8916;47.086;15.920;2022-12-07T03:16:54;53.03;;;24.02;;
17595;SDS011;8916;47.086;15.920;2022-12-07T03:19:30;59.13;;;25.55;;
17595;SDS011;8916;47.086;15.920;2022-12-07T03:22:02;59.60;;;24.48;;
17595;SDS011;8916;47.086;15.920;2022-12-07T03:24:36;58.97;;;23.02;;
17595;SDS011;8916;47.086;15.920;2022-12-07T03:27:11;53.95;;;22.98;;
17595;SDS011;8916;47.086;15.920;2022-12-07T03:29:47;55.38;;;23.35;;
17595;SDS011;8916;47.086;15.920;2022-12-07T03:32:23;61.30;;;23.25;;
17595;SDS011;8916;47.086;15.920;2022-12-07T03:35:00;52.72;;;21.85;;
17595;SDS011;8916;47.086;15.920;2022-12-07T03:37:34;53.92;;;23.02;;
17595;SDS011;8916;47.086;15.920;2022-12-07T03:40:07;49.85;;;21.30;;
17595;SDS011;8916;47.086;15.920;2022-12-07T03:42:43;30.75;;;14.10;;
17595;SDS011;8916;47.086;15.920;2022-12-07T03:45:12;46.13;;;19.23;;
17595;SDS011;8916;47.086;15.920;2022-12-07T03:47:45;48.95;;;21.13;;
17595;SDS011;8916;47.086;15.920;2022-12-07T03:50:21;43.15;;;20.08;;
17595;SDS011;8916;47.086;15.920;2022-12-07T03:52:58;46.92;;;20.13;;
17595;SDS011;8916;47.086;15.920;2022-12-07T03:55:34;52.80;;;21.10;;
17595;SDS011;8916;47.086;15.920;2022-12-07T03:58:09;52.80;;;21.75;;
17595;SDS011;8916;47.086;15.920;2022-12-07T04:00:42;46.00;;;20.10;;
17595;SDS011;8916;47.086;15.920;2022-12-07T04:03:14;43.08;;;19.67;;
17595;SDS011;8916;47.086;15.920;2022-12-07T04:05:43;41.28;;;19.17;;
17595;SDS011;8916;47.086;15.920;2022-12-07T04:08:13;35.47;;;17.60;;
17595;SDS011;8916;47.086;15.920;2022-12-07T04:10:42;34.38;;;16.70;;
17595;SDS011;8916;47.086;15.920;2022-12-07T04:13:11;32.72;;;16.70;;
17595;SDS011;8916;47.086;15.920;2022-12-07T04:15:40;29.00;;;15.40;;
17595;SDS011;8916;47.086;15.920;2022-12-07T04:18:10;38.85;;;18.00;;
17595;SDS011;8916;47.086;15.920;2022-12-07T04:20:40;33.55;;;15.93;;
17595;SDS011;8916;47.086;15.920;2022-12-07T04:23:09;32.00;;;16.30;;
17595;SDS011;8916;47.086;15.920;2022-12-07T04:25:39;31.67;;;15.70;;
17595;SDS011;8916;47.086;15.920;2022-12-07T04:28:09;31.38;;;15.45;;
17595;SDS011;8916;47.086;15.920;2022-12-07T04:30:39;33.60;;;16.25;;
17595;SDS011;8916;47.086;15.920;2022-12-07T04:33:08;37.55;;;17.52;;
17595;SDS011;8916;47.086;15.920;2022-12-07T04:35:37;36.92;;;16.50;;
17595;SDS011;8916;47.086;15.920;2022-12-07T04:38:08;36.90;;;17.90;;
17595;SDS011;8916;47.086;15.920;2022-12-07T04:40:37;36.53;;;17.05;;
17595;SDS011;8916;47.086;15.920;2022-12-07T04:43:06;35.17;;;17.08;;
17595;SDS011;8916;47.086;15.920;2022-12-07T04:45:35;32.88;;;15.20;;
17595;SDS011;8916;47.086;15.920;2022-12-07T04:48:04;35.45;;;16.48;;
17595;SDS011;8916;47.086;15.920;2022-12-07T04:50:35;34.40;;;16.88;;
17595;SDS011;8916;47.086;15.920;2022-12-07T04:53:13;36.50;;;16.92;;
17595;SDS011;8916;47.086;15.920;2022-12-07T04:55:43;41.63;;;18.40;;
17595;SDS011;8916;47.086;15.920;2022-12-07T04:58:13;35.67;;;17.48;;
17595;SDS011;8916;47.086;15.920;2022-12-07T05:00:42;40.15;;;18.52;;
17595;SDS011;8916;47.086;15.920;2022-12-07T05:03:11;40.90;;;18.17;;
17595;SDS011;8916;47.086;15.920;2022-12-07T05:05:40;41.60;;;19.08;;
17595;SDS011;8916;47.086;15.920;2022-12-07T05:08:10;47.50;;;20.92;;
17595;SDS011;8916;47.086;15.920;2022-12-07T05:10:40;38.55;;;18.55;;
17595;SDS011;8916;47.086;15.920;2022-12-07T05:13:09;42.97;;;18.13;;
17595;SDS011;8916;47.086;15.920;2022-12-07T05:15:39;40.30;;;18.90;;
17595;SDS011;8916;47.086;15.920;2022-12-07T05:18:09;38.85;;;18.58;;
17595;SDS011;8916;47.086;15.920;2022-12-07T05:20:40;61.80;;;20.23;;
17595;SDS011;8916;47.086;15.920;2022-12-07T05:23:10;39.67;;;18.40;;
17595;SDS011;8916;47.086;15.920;2022-12-07T05:25:41;37.70;;;17.85;;
17595;SDS011;8916;47.086;15.920;2022-12-07T05:28:11;36.58;;;17.95;;
17595;SDS011;8916;47.086;15.920;2022-12-07T05:30:40;33.22;;;18.10;;
17595;SDS011;8916;47.086;15.920;2022-12-07T05:33:09;43.50;;;19.17;;
17595;SDS011;8916;47.086;15.920;2022-12-07T05:35:38;31.15;;;16.02;;
17595;SDS011;8916;47.086;15.920;2022-12-07T05:38:07;37.63;;;17.48;;
17595;SDS011;8916;47.086;15.920;2022-12-07T05:40:36;35.50;;;17.30;;
17595;SDS011;8916;47.086;15.920;2022-12-07T05:43:07;35.30;;;17.13;;
17595;SDS011;8916;47.086;15.920;2022-12-07T05:45:36;33.85;;;16.58;;
17595;SDS011;8916;47.086;15.920;2022-12-07T05:48:05;31.23;;;16.27;;
17595;SDS011;8916;47.086;15.920;2022-12-07T05:50:34;31.48;;;16.25;;
17595;SDS011;8916;47.086;15.920;2022-12-07T05:53:03;34.30;;;16.75;;
17595;SDS011;8916;47.086;15.920;2022-12-07T05:55:32;34.67;;;16.42;;
17595;SDS011;8916;47.086;15.920;2022-12-07T05:58:02;36.35;;;18.05;;
17595;SDS011;8916;47.086;15.920;2022-12-07T06:00:50;36.72;;;18.95;;
17595;SDS011;8916;47.086;15.920;2022-12-07T06:03:19;37.95;;;18.02;;
17595;SDS011;8916;47.086;15.920;2022-12-07T06:05:48;37.92;;;18.73;;
17595;SDS011;8916;47.086;15.920;2022-12-07T06:08:17;35.70;;;18.10;;
17595;SDS011;8916;47.086;15.920;2022-12-07T06:10:47;44.80;;;19.98;;
17595;SDS011;8916;47.086;15.920;2022-12-07T06:13:39;38.63;;;18.17;;
17595;SDS011;8916;47.086;15.920;2022-12-07T06:16:14;30.10;;;15.63;;
17595;SDS011;8916;47.086;15.920;2022-12-07T06:18:43;40.83;;;17.92;;
17595;SDS011;8916;47.086;15.920;2022-12-07T06:21:12;38.30;;;17.35;;
17595;SDS011;8916;47.086;15.920;2022-12-07T06:23:42;32.42;;;16.40;;
17595;SDS011;8916;47.086;15.920;2022-12-07T06:26:11;29.70;;;15.98;;
17595;SDS011;8916;47.086;15.920;2022-12-07T06:28:40;35.75;;;18.02;;
17595;SDS011;8916;47.086;15.920;2022-12-07T06:31:09;48.38;;;18.88;;
17595;SDS011;8916;47.086;15.920;2022-12-07T06:33:41;33.20;;;17.33;;
17595;SDS011;8916;47.086;15.920;2022-12-07T06:36:11;40.63;;;17.70;;
17595;SDS011;8916;47.086;15.920;2022-12-07T06:38:40;42.15;;;19.05;;
17595;SDS011;8916;47.086;15.920;2022-12-07T06:41:09;35.70;;;18.60;;
17595;SDS011;8916;47.086;15.920;2022-12-07T06:43:38;41.10;;;19.50;;
17595;SDS011;8916;47.086;15.920;2022-12-07T06:46:07;38.92;;;20.25;;
17595;SDS011;8916;47.086;15.920;2022-12-07T06:48:36;51.28;;;20.38;;
17595;SDS011;8916;47.086;15.920;2022-12-07T06:51:07;38.60;;;19.20;;
17595;SDS011;8916;47.086;15.920;2022-12-07T06:53:37;55.22;;;22.30;;
17595;SDS011;8916;47.086;15.920;2022-12-07T06:56:06;51.10;;;21.95;;
17595;SDS011;8916;47.086;15.920;2022-12-07T06:58:36;56.20;;;23.10;;
17595;SDS011;8916;47.086;15.920;2022-12-07T07:01:08;52.70;;;21.40;;
17595;SDS011;8916;47.086;15.920;2022-12-07T07:03:38;42.33;;;19.52;;
17595;SDS011;8916;47.086;15.920;2022-12-07T07:06:09;49.13;;;21.63;;
17595;SDS011;8916;47.086;15.920;2022-12-07T07:08:39;51.42;;;21.58;;
17595;SDS011;8916;47.086;15.920;2022-12-07T07:11:09;40.65;;;20.60;;
17595;SDS011;8916;47.086;15.920;2022-12-07T07:13:38;57.72;;;22.08;;
17595;SDS011;8916;47.086;15.920;2022-12-07T07:16:08;48.75;;;20.73;;
17595;SDS011;8916;47.086;15.920;2022-12-07T07:18:37;49.33;;;20.40;;
17595;SDS011;8916;47.086;15.920;2022-12-07T07:21:07;40.78;;;19.08;;
17595;SDS011;8916;47.086;15.920;2022-12-07T07:23:37;37.70;;;19.08;;
17595;SDS011;8916;47.086;15.920;2022-12-07T07:26:07;40.25;;;19.15;;
17595;SDS011;8916;47.086;15.920;2022-12-07T07:28:36;36.15;;;17.52;;
17595;SDS011;8916;47.086;15.920;2022-12-07T07:31:05;34.65;;;17.23;;
17595;SDS011;8916;47.086;15.920;2022-12-07T07:33:35;32.70;;;16.98;;
17595;SDS011;8916;47.086;15.920;2022-12-07T07:36:04;34.67;;;16.05;;
17595;SDS011;8916;47.086;15.920;2022-12-07T07:38:34;28.33;;;16.42;;
17595;SDS011;8916;47.086;15.920;2022-12-07T07:41:05;37.38;;;16.67;;
17595;SDS011;8916;47.086;15.920;2022-12-07T07:43:34;38.10;;;18.02;;
17595;SDS011;8916;47.086;15.920;2022-12-07T07:46:03;38.78;;;18.27;;
17595;SDS011;8916;47.086;15.920;2022-12-07T07:48:33;38.60;;;17.55;;
17595;SDS011;8916;47.086;15.920;2022-12-07T07:51:04;34.67;;;18.20;;
17595;SDS011;8916;47.086;15.920;2022-12-07T07:53:34;35.15;;;17.67;;
17595;SDS011;8916;47.086;15.920;2022-12-07T07:56:05;33.33;;;16.73;;
17595;SDS011;8916;47.086;15.920;2022-12-07T07:58:34;34.75;;;17.83;;
17595;SDS011;8916;47.086;15.920;2022-12-07T08:01:04;34.13;;;17.70;;
17595;SDS011;8916;47.086;15.920;2022-12-07T08:03:34;34.63;;;17.90;;
17595;SDS011;8916;47.086;15.920;2022-12-07T08:06:04;35.63;;;17.33;;
17595;SDS011;8916;47.086;15.920;2022-12-07T08:08:34;34.28;;;18.38;;
17595;SDS011;8916;47.086;15.920;2022-12-07T08:11:06;35.97;;;18.23;;
17595;SDS011;8916;47.086;15.920;2022-12-07T08:13:36;34.50;;;16.95;;
17595;SDS011;8916;47.086;15.920;2022-12-07T08:16:06;35.20;;;18.15;;
17595;SDS011;8916;47.086;15.920;2022-12-07T08:18:37;30.90;;;16.05;;
17595;SDS011;8916;47.086;15.920;2022-12-07T08:21:09;35.45;;;16.88;;
17595;SDS011;8916;47.086;15.920;2022-12-07T08:23:41;30.73;;;16.30;;
17595;SDS011;8916;47.086;15.920;2022-12-07T08:26:13;33.53;;;16.90;;
17595;SDS011;8916;47.086;15.920;2022-12-07T08:28:44;27.98;;;15.93;;
17595;SDS011;8916;47.086;15.920;2022-12-07T08:31:14;30.00;;;15.68;;
17595;SDS011;8916;47.086;15.920;2022-12-07T08:33:46;31.58;;;16.27;;
17595;SDS011;8916;47.086;15.920;2022-12-07T08:36:16;30.15;;;14.88;;
17595;SDS011;8916;47.086;15.920;2022-12-07T08:38:46;35.13;;;16.20;;
17595;SDS011;8916;47.086;15.920;2022-12-07T08:41:36;32.45;;;15.65;;
17595;SDS011;8916;47.086;15.920;2022-12-07T08:44:05;28.65;;;16.10;;
17595;SDS011;8916;47.086;15.920;2022-12-07T08:46:35;26.92;;;14.90;;
17595;SDS011;8916;47.086;15.920;2022-12-07T08:49:09;29.05;;;14.70;;
17595;SDS011;8916;47.086;15.920;2022-12-07T08:51:42;26.15;;;14.63;;
17595;SDS011;8916;47.086;15.920;2022-12-07T08:54:12;30.25;;;15.80;;
17595;SDS011;8916;47.086;15.920;2022-12-07T08:56:47;36.05;;;16.48;;
17595;SDS011;8916;47.086;15.920;2022-12-07T08:59:25;34.60;;;16.08;;
17595;SDS011;8916;47.086;15.920;2022-12-07T09:01:58;27.80;;;14.80;;
17595;SDS011;8916;47.086;15.920;2022-12-07T09:04:29;28.58;;;14.90;;
17595;SDS011;8916;47.086;15.920;2022-12-07T09:06:58;29.27;;;14.93;;
17595;SDS011;8916;47.086;15.920;2022-12-07T09:09:28;29.15;;;15.88;;
17595;SDS011;8916;47.086;15.920;2022-12-07T09:11:58;32.33;;;15.88;;
17595;SDS011;8916;47.086;15.920;2022-12-07T09:14:27;30.35;;;15.82;;
17595;SDS011;8916;47.086;15.920;2022-12-07T09:17:04;28.08;;;15.20;;
17595;SDS011;8916;47.086;15.920;2022-12-07T09:19:35;29.60;;;15.75;;
17595;SDS011;8916;47.086;15.920;2022-12-07T09:22:05;31.58;;;16.70;;
17595;SDS011;8916;47.086;15.920;2022-12-07T09:24:34;29.60;;;16.60;;
17595;SDS011;8916;47.086;15.920;2022-12-07T09:27:08;27.88;;;15.77;;
17595;SDS011;8916;47.086;15.920;2022-12-07T09:29:38;29.13;;;15.98;;
17595;SDS011;8916;47.086;15.920;2022-12-07T09:32:07;28.08;;;15.48;;
17595;SDS011;8916;47.086;15.920;2022-12-07T09:34:38;27.40;;;15.50;;
17595;SDS011;8916;47.086;15.920;2022-12-07T09:37:07;28.77;;;15.07;;
17595;SDS011;8916;47.086;15.920;2022-12-07T09:39:37;29.50;;;15.93;;
17595;SDS011;8916;47.086;15.920;2022-12-07T09:42:18;26.17;;;14.93;;
17595;SDS011;8916;47.086;15.920;2022-12-07T09:44:58;25.52;;;15.35;;
17595;SDS011;8916;47.086;15.920;2022-12-07T09:47:28;29.10;;;16.13;;
17595;SDS011;8916;47.086;15.920;2022-12-07T09:50:00;25.70;;;15.63;;
17595;SDS011;8916;47.086;15.920;2022-12-07T09:52:33;25.73;;;13.73;;
17595;SDS011;8916;47.086;15.920;2022-12-07T09:55:09;26.95;;;15.57;;
17595;SDS011;8916;47.086;15.920;2022-12-07T09:57:43;26.35;;;14.77;;
17595;SDS011;8916;47.086;15.920;2022-12-07T10:00:13;23.33;;;13.55;;
17595;SDS011;8916;47.086;15.920;2022-12-07T10:02:46;26.95;;;15.25;;
17595;SDS011;8916;47.086;15.920;2022-12-07T10:05:20;26.05;;;14.93;;
17595;SDS011;8916;47.086;15.920;2022-12-07T10:07:55;30.23;;;15.68;;
17595;SDS011;8916;47.086;15.920;2022-12-07T10:10:26;22.73;;;13.65;;
17595;SDS011;8916;47.086;15.920;2022-12-07T10:13:06;23.60;;;14.60;;
17595;SDS011;8916;47.086;15.920;2022-12-07T10:15:41;25.70;;;15.02;;
17595;SDS011;8916;47.086;15.920;2022-12-07T10:18:20;26.20;;;14.98;;
17595;SDS011;8916;47.086;15.920;2022-12-07T10:21:01;35.10;;;17.23;;
17595;SDS011;8916;47.086;15.920;2022-12-07T10:23:40;27.38;;;15.88;;
17595;SDS011;8916;47.086;15.920;2022-12-07T10:26:19;23.27;;;14.70;;
17595;SDS011;8916;47.086;15.920;2022-12-07T10:29:00;25.15;;;15.18;;
17595;SDS011;8916;47.086;15.920;2022-12-07T10:31:42;27.30;;;15.05;;
17595;SDS011;8916;47.086;15.920;2022-12-07T10:34:20;26.80;;;15.25;;
17595;SDS011;8916;47.086;15.920;2022-12-07T10:36:52;26.90;;;14.80;;
17595;SDS011;8916;47.086;15.920;2022-12-07T10:39:40;27.38;;;14.73;;
17595;SDS011;8916;47.086;15.920;2022-12-07T10:44:50;28.17;;;14.13;;
17595;SDS011;8916;47.086;15.920;2022-12-07T10:47:38;26.95;;;14.60;;
17595;SDS011;8916;47.086;15.920;2022-12-07T10:56:24;23.90;;;13.40;;
17595;SDS011;8916;47.086;15.920;2022-12-07T10:59:39;23.50;;;14.05;;
17595;SDS011;8916;47.086;15.920;2022-12-07T11:02:24;19.35;;;12.10;;
17595;SDS011;8916;47.086;15.920;2022-12-07T11:05:12;23.77;;;13.93;;
17595;SDS011;8916;47.086;15.920;2022-12-07T11:07:54;24.00;;;13.50;;
17595;SDS011;8916;47.086;15.920;2022-12-07T11:10:34;24.13;;;13.10;;
17595;SDS011;8916;47.086;15.920;2022-12-07T11:13:16;24.15;;;14.10;;
17595;SDS011;8916;47.086;15.920;2022-12-07T11:16:12;23.55;;;13.27;;
17595;SDS011;8916;47.086;15.920;2022-12-07T11:18:56;21.33;;;13.57;;
17595;SDS011;8916;47.086;15.920;2022-12-07T11:21:44;20.00;;;13.05;;
17595;SDS011;8916;47.086;15.920;2022-12-07T11:24:22;23.85;;;13.35;;
17595;SDS011;8916;47.086;15.920;2022-12-07T11:27:03;22.38;;;13.55;;
17595;SDS011;8916;47.086;15.920;2022-12-07T11:29:49;21.73;;;12.23;;
17595;SDS011;8916;47.086;15.920;2022-12-07T11:32:49;22.08;;;13.25;;
17595;SDS011;8916;47.086;15.920;2022-12-07T11:35:31;20.58;;;12.32;;
17595;SDS011;8916;47.086;15.920;2022-12-07T11:38:12;21.15;;;13.32;;
17595;SDS011;8916;47.086;15.920;2022-12-07T11:40:51;19.90;;;11.88;;
17595;SDS011;8916;47.086;15.920;2022-12-07T11:43:49;19.98;;;12.27;;
17595;SDS011;8916;47.086;15.920;2022-12-07T11:46:24;18.58;;;12.55;;
17595;SDS011;8916;47.086;15.920;2022-12-07T11:49:04;24.65;;;13.45;;
17595;SDS011;8916;47.086;15.920;2022-12-07T11:51:42;24.33;;;16.38;;
17595;SDS011;8916;47.086;15.920;2022-12-07T11:54:14;22.13;;;13.77;;
17595;SDS011;8916;47.086;15.920;2022-12-07T11:56:48;21.48;;;12.55;;
17595;SDS011;8916;47.086;15.920;2022-12-07T11:59:22;22.08;;;12.32;;
17595;SDS011;8916;47.086;15.920;2022-12-07T12:01:58;18.83;;;12.13;;
17595;SDS011;8916;47.086;15.920;2022-12-07T12:04:47;18.50;;;12.25;;
17595;SDS011;8916;47.086;15.920;2022-12-07T12:07:24;23.90;;;12.32;;
17595;SDS011;8916;47.086;15.920;2022-12-07T12:10:17;17.42;;;11.82;;
17595;SDS011;8916;47.086;15.920;2022-12-07T12:16:22;19.08;;;11.65;;
17595;SDS011;8916;47.086;15.920;2022-12-07T12:19:25;18.23;;;12.10;;
17595;SDS011;8916;47.086;15.920;2022-12-07T12:22:04;20.25;;;12.63;;
17595;SDS011;8916;47.086;15.920;2022-12-07T12:24:43;22.55;;;12.63;;
17595;SDS011;8916;47.086;15.920;2022-12-07T12:27:20;19.17;;;11.82;;
17595;SDS011;8916;47.086;15.920;2022-12-07T12:29:55;22.45;;;12.77;;
17595;SDS011;8916;47.086;15.920;2022-12-07T12:32:31;20.75;;;12.98;;
17595;SDS011;8916;47.086;15.920;2022-12-07T12:41:01;18.33;;;11.50;;
17595;SDS011;8916;47.086;15.920;2022-12-07T12:43:44;18.63;;;12.18;;
17595;SDS011;8916;47.086;15.920;2022-12-07T12:49:32;22.52;;;13.23;;
17595;SDS011;8916;47.086;15.920;2022-12-07T12:55:24;20.23;;;12.77;;
17595;SDS011;8916;47.086;15.920;2022-12-07T12:58:30;21.75;;;12.52;;
17595;SDS011;8916;47.086;15.920;2022-12-07T13:06:59;18.15;;;10.65;;
17595;SDS011;8916;47.086;15.920;2022-12-07T13:09:28;22.13;;;11.85;;
17595;SDS011;8916;47.086;15.920;2022-12-07T13:12:03;18.35;;;12.05;;
17595;SDS011;8916;47.086;15.920;2022-12-07T13:14:42;16.15;;;10.50;;
17595;SDS011;8916;47.086;15.920;2022-12-07T13:20:51;18.77;;;11.75;;
17595;SDS011;8916;47.086;15.920;2022-12-07T13:23:30;19.23;;;10.65;;
17595;SDS011;8916;47.086;15.920;2022-12-07T13:29:06;21.88;;;11.60;;
17595;SDS011;8916;47.086;15.920;2022-12-07T13:31:41;18.08;;;11.23;;
17595;SDS011;8916;47.086;15.920;2022-12-07T13:34:29;23.50;;;12.02;;
17595;SDS011;8916;47.086;15.920;2022-12-07T13:37:02;20.63;;;11.30;;
17595;SDS011;8916;47.086;15.920;2022-12-07T13:39:44;16.77;;;11.43;;
17595;SDS011;8916;47.086;15.920;2022-12-07T13:42:18;17.90;;;12.20;;
17595;SDS011;8916;47.086;15.920;2022-12-07T13:44:55;15.02;;;10.25;;
17595;SDS011;8916;47.086;15.920;2022-12-07T13:47:28;17.27;;;10.50;;
17595;SDS011;8916;47.086;15.920;2022-12-07T13:50:20;17.60;;;10.98;;
17595;SDS011;8916;47.086;15.920;2022-12-07T13:52:54;15.85;;;10.40;;
17595;SDS011;8916;47.086;15.920;2022-12-07T13:55:24;14.85;;;9.40;;
17595;SDS011;8916;47.086;15.920;2022-12-07T13:57:54;13.68;;;9.32;;
17595;SDS011;8916;47.086;15.920;2022-12-07T14:00:26;13.88;;;9.32;;
17595;SDS011;8916;47.086;15.920;2022-12-07T14:03:00;18.35;;;8.93;;
17595;SDS011;8916;47.086;15.920;2022-12-07T14:05:32;16.38;;;9.00;;
17595;SDS011;8916;47.086;15.920;2022-12-07T14:08:04;13.27;;;8.80;;
17595;SDS011;8916;47.086;15.920;2022-12-07T14:10:53;21.75;;;10.30;;
17595;SDS011;8916;47.086;15.920;2022-12-07T14:13:28;16.35;;;9.95;;
17595;SDS011;8916;47.086;15.920;2022-12-07T14:16:26;18.10;;;10.65;;
17595;SDS011;8916;47.086;15.920;2022-12-07T14:18:59;19.75;;;10.52;;
17595;SDS011;8916;47.086;15.920;2022-12-07T14:21:31;22.92;;;11.25;;
17595;SDS011;8916;47.086;15.920;2022-12-07T14:24:08;23.45;;;12.05;;
17595;SDS011;8916;47.086;15.920;2022-12-07T14:26:47;19.77;;;11.40;;
17595;SDS011;8916;47.086;15.920;2022-12-07T14:29:19;25.30;;;11.63;;
17595;SDS011;8916;47.086;15.920;2022-12-07T14:31:52;21.48;;;12.80;;
17595;SDS011;8916;47.086;15.920;2022-12-07T14:34:23;24.70;;;12.55;;
17595;SDS011;8916;47.086;15.920;2022-12-07T14:36:53;25.67;;;13.10;;
17595;SDS011;8916;47.086;15.920;2022-12-07T14:39:23;25.45;;;12.38;;
17595;SDS011;8916;47.086;15.920;2022-12-07T14:41:53;22.63;;;12.98;;
17595;SDS011;8916;47.086;15.920;2022-12-07T14:44:22;27.83;;;13.50;;
17595;SDS011;8916;47.086;15.920;2022-12-07T14:47:03;24.50;;;13.93;;
17595;SDS011;8916;47.086;15.920;2022-12-07T14:49:52;21.33;;;13.25;;
17595;SDS011;8916;47.086;15.920;2022-12-07T14:52:24;24.92;;;14.05;;
17595;SDS011;8916;47.086;15.920;2022-12-07T14:55:19;26.75;;;14.82;;
17595;SDS011;8916;47.086;15.920;2022-12-07T14:57:52;25.17;;;14.43;;
17595;SDS011;8916;47.086;15.920;2022-12-07T15:00:23;28.42;;;14.95;;
17595;SDS011;8916;47.086;15.920;2022-12-07T15:02:56;30.80;;;15.23;;
17595;SDS011;8916;47.086;15.920;2022-12-07T15:05:27;24.08;;;15.05;;
17595;SDS011;8916;47.086;15.920;2022-12-07T15:07:56;28.08;;;15.35;;
17595;SDS011;8916;47.086;15.920;2022-12-07T15:10:26;27.17;;;16.38;;
17595;SDS011;8916;47.086;15.920;2022-12-07T15:13:00;24.83;;;15.13;;
17595;SDS011;8916;47.086;15.920;2022-12-07T15:15:45;27.33;;;16.77;;
17595;SDS011;8916;47.086;15.920;2022-12-07T15:18:16;31.52;;;15.90;;
17595;SDS011;8916;47.086;15.920;2022-12-07T15:20:46;29.88;;;16.70;;
17595;SDS011;8916;47.086;15.920;2022-12-07T15:23:21;27.70;;;17.35;;
17595;SDS011;8916;47.086;15.920;2022-12-07T15:25:51;28.88;;;16.98;;
17595;SDS011;8916;47.086;15.920;2022-12-07T15:28:20;27.45;;;16.70;;
17595;SDS011;8916;47.086;15.920;2022-12-07T15:30:49;29.27;;;17.95;;
17595;SDS011;8916;47.086;15.920;2022-12-07T15:33:20;31.75;;;17.10;;
17595;SDS011;8916;47.086;15.920;2022-12-07T15:35:49;33.38;;;17.88;;
17595;SDS011;8916;47.086;15.920;2022-12-07T15:38:18;29.48;;;17.23;;